Portada
METAR-TAF:

METAR-TAF

Aeroports :

Lambert-St Louis International Airport

Saint Louis, Missouri, Estats Units d'Amèrica

latitud: 38-45-09N, longitud: 090-22-25W, altitud: 184 m

Observació

L'informe es va fer fa 1 hora i 10 minuts, a les 03:51 UTC
Vent 7 kt del Sud
Temperatura 29°C
Humitat 55%
Pressió 1024 hPa
Visibilitat: 16.1 km
Núvols disperses a una alçada de 16000 ft

METAR: KSTL 200351Z 19007KT 10SM SCT160 29/19 A3023 RMK AO2 SLP221 T02890194 $

Hora: 00:01 (05:01 UTC)

Pronòstic

L'informe es va fer fa 1 hora i 49 minuts, a les 03:12 UTC
Pronòstic vàlid del 20 a les 03 UTC al 21 a les 06 UTC
Vent 4 kt del Sud
Visibilitat: 10 km
Núvols disperses a una alçada de 25000 ft
A partir de les 20 a les 1600 UTC
Vent 6 kt del Sud
Visibilitat: 10 km
Núvols disperses a una alçada de 6000 ft

TAF: KSTL 200312Z 2003/2106 18004KT P6SM SCT250 FM201600 17006KT P6SM SCT060

Observacions i pronòstics meteorològics de més de 4000 aeroports (METAR i TAF).

Les estacions disponibles són els punts grocs i vermells al mapa.

Posi el ratolí al punt desitjat per veure el nom de l'estació.

Feu clic per veure les observacions i els pronòstics meteorològics.

Per canviar el mapa: feu clic els botons verds amb una creu de color negre per apropar; al botó verd amb un guió per allunyar la imatge; o en les fletxes verdes per a mapes adjacents.


METAR-TAF: